Time,TemperatureF,DewpointF,PressureIn,WindDirection,WindDirectionDegrees,WindSpeedMPH,WindSpeedGustMPH,Humidity,HourlyPrecipIn,Conditions,Clouds,dailyrainin,SoftwareType,DateUTC
2013-01-03 00:00:00,16.0,-99.9,-100.00,NNE,27,5.0,9.0,-999,-99.99,,,0.00,,2013-01-03 08:00:00,
2013-01-03 00:53:00,16.0,-99.9,-100.00,NNE,27,5.0,9.0,-999,-99.99,,,0.00,,2013-01-03 08:53:00,
2013-01-03 01:00:00,15.0,-99.9,-100.00,NNE,31,3.0,7.0,-999,-99.99,,,0.00,,2013-01-03 09:00:00,
2013-01-03 01:53:00,15.0,-99.9,-100.00,NNE,31,3.0,7.0,-999,-99.99,,,0.00,,2013-01-03 09:53:00,
2013-01-03 02:00:00,16.0,-99.9,-100.00,North,5,2.0,6.0,-999,-99.99,,,0.00,,2013-01-03 10:00:00,
2013-01-03 02:53:00,16.0,-99.9,-100.00,North,5,2.0,6.0,-999,-99.99,,,0.00,,2013-01-03 10:53:00,
2013-01-03 03:00:00,17.0,-99.9,-100.00,NNE,33,6.0,9.0,-999,-99.99,,,0.00,,2013-01-03 11:00:00,
2013-01-03 03:53:00,17.0,-99.9,-100.00,NNE,33,6.0,9.0,-999,-99.99,,,0.00,,2013-01-03 11:53:00,
2013-01-03 04:00:00,18.0,-99.9,-100.00,NNE,31,5.0,7.0,-999,-99.99,,,0.00,,2013-01-03 12:00:00,
2013-01-03 04:53:00,18.0,-99.9,-100.00,NNE,31,5.0,7.0,-999,-99.99,,,0.00,,2013-01-03 12:53:00,
2013-01-03 05:00:00,18.0,-99.9,-100.00,NNE,24,2.0,6.0,-999,-99.99,,,0.00,,2013-01-03 13:00:00,
2013-01-03 05:53:00,18.0,-99.9,-100.00,NNE,24,2.0,6.0,-999,-99.99,,,0.00,,2013-01-03 13:53:00,
2013-01-03 06:00:00,20.0,-99.9,-100.00,NE,48,3.0,6.0,-999,-99.99,,,0.00,,2013-01-03 14:00:00,
2013-01-03 06:53:00,20.0,-99.9,-100.00,NE,48,3.0,6.0,-999,-99.99,,,0.00,,2013-01-03 14:53:00,
2013-01-03 07:00:00,21.0,-99.9,-100.00,NE,48,3.0,6.0,-999,-99.99,,,0.00,,2013-01-03 15:00:00,
2013-01-03 07:53:00,21.0,-99.9,-100.00,NE,48,3.0,6.0,-999,-99.99,,,0.00,,2013-01-03 15:53:00,
2013-01-03 08:00:00,22.0,-99.9,-100.00,ENE,60,1.0,6.0,-999,-99.99,,,0.00,,2013-01-03 16:00:00,
2013-01-03 08:53:00,22.0,-99.9,-100.00,ENE,60,1.0,6.0,-999,-99.99,,,0.00,,2013-01-03 16:53:00,
2013-01-03 09:00:00,25.0,-99.9,-100.00,NE,39,2.0,6.0,-999,-99.99,,,0.01,,2013-01-03 17:00:00,
2013-01-03 09:53:00,25.0,-99.9,-100.00,NE,39,2.0,6.0,-999,-99.99,,,0.01,,2013-01-03 17:53:00,
2013-01-03 10:00:00,36.0,-99.9,-100.00,NNE,26,2.0,6.0,-999,-99.99,,,0.01,,2013-01-03 18:00:00,
2013-01-03 10:54:00,36.0,-99.9,-100.00,NNE,26,2.0,6.0,-999,-99.99,,,0.01,,2013-01-03 18:54:00,
2013-01-03 11:00:00,34.0,-99.9,-100.00,SW,219,2.0,7.0,-999,-99.99,,,-99.99,,2013-01-03 19:00:00,
2013-01-03 11:57:00,34.0,-99.9,-100.00,SW,219,2.0,7.0,-999,-99.99,,,-99.99,,2013-01-03 19:57:00,
2013-01-03 12:00:00,32.0,-99.9,-100.00,South,185,6.0,11.0,-999,-99.99,,,-99.99,,2013-01-03 20:00:00,
2013-01-03 12:53:00,32.0,-99.9,-100.00,South,185,6.0,11.0,-999,-99.99,,,-99.99,,2013-01-03 20:53:00,
2013-01-03 13:00:00,33.0,-99.9,-100.00,South,184,7.0,13.0,-999,-99.99,,,0.00,,2013-01-03 21:00:00,
2013-01-03 14:00:00,35.0,-99.9,-100.00,South,191,6.0,12.0,-999,-99.99,,,0.00,,2013-01-03 22:00:00,
2013-01-03 14:53:00,35.0,-99.9,-100.00,South,191,6.0,12.0,-999,-99.99,,,0.00,,2013-01-03 22:53:00,
2013-01-03 15:00:00,32.0,-99.9,-100.00,SSW,211,4.0,9.0,-999,-99.99,,,-99.99,,2013-01-03 23:00:00,
2013-01-03 15:53:00,32.0,-99.9,-100.00,SSW,211,4.0,9.0,-999,-99.99,,,-99.99,,2013-01-03 23:53:00,
2013-01-03 16:00:00,27.0,-99.9,-100.00,South,184,8.0,14.0,-999,-99.99,,,-99.99,,2013-01-04 00:00:00,
2013-01-03 16:53:00,27.0,-99.9,-100.00,South,184,8.0,14.0,-999,-99.99,,,-99.99,,2013-01-04 00:53:00,
2013-01-03 17:00:00,23.0,-99.9,-100.00,SSW,196,4.0,12.0,-999,-99.99,,,0.00,,2013-01-04 01:00:00,
2013-01-03 17:53:00,23.0,-99.9,-100.00,SSW,196,4.0,12.0,-999,-99.99,,,0.00,,2013-01-04 01:53:00,
2013-01-03 18:00:00,21.0,-99.9,-100.00,South,171,3.0,9.0,-999,-99.99,,,0.00,,2013-01-04 02:00:00,
2013-01-03 18:53:00,21.0,-99.9,-100.00,South,171,3.0,9.0,-999,-99.99,,,0.00,,2013-01-04 02:53:00,
2013-01-03 19:00:00,21.0,-99.9,-100.00,SSW,201,4.0,8.0,-999,-99.99,,,-99.99,,2013-01-04 03:00:00,
2013-01-03 19:53:00,21.0,-99.9,-100.00,SSW,201,4.0,8.0,-999,-99.99,,,-99.99,,2013-01-04 03:53:00,
2013-01-03 20:00:00,17.0,-99.9,-100.00,SW,223,3.0,6.0,-999,-99.99,,,0.01,,2013-01-04 04:00:00,
2013-01-03 20:53:00,17.0,-99.9,-100.00,SW,223,3.0,6.0,-999,-99.99,,,0.01,,2013-01-04 04:53:00,
2013-01-03 21:00:00,18.0,-99.9,-100.00,East,100,2.0,6.0,-999,-99.99,,,0.01,,2013-01-04 05:00:00,
2013-01-03 21:53:00,18.0,-99.9,-100.00,East,100,2.0,6.0,-999,-99.99,,,0.01,,2013-01-04 05:53:00,
2013-01-03 22:00:00,15.0,-99.9,-100.00,SSW,201,4.0,10.0,-999,-99.99,,,0.01,,2013-01-04 06:00:00,
2013-01-03 22:53:00,15.0,-99.9,-100.00,SSW,201,4.0,10.0,-999,-99.99,,,0.01,,2013-01-04 06:53:00,
2013-01-03 23:00:00,15.0,-99.9,-100.00,West,277,2.0,6.0,-999,-99.99,,,0.01,,2013-01-04 07:00:00,
2013-01-03 23:53:00,15.0,-99.9,-100.00,West,277,2.0,6.0,-999,-99.99,,,0.01,,2013-01-04 07:53:00,